Rms Queen Mary 2 — ZCEF6 — position and weather

sailwx.info

Track history (hours):
 
Tides and Currents Weather Stations Pressure Air Temp Water Temp Dewpoint Dewpoint Depression Visibility Wind Speed Wind Dir Waves Ship Positions

Rms Queen Mary 2

Last reported at 2017-May-27 04:00 UTC. Time now 2017-May-29 16:51 UTC.
Position N 47°48' W 030°18'.

Length 345 m; draft 10.3 m.

Type: Passenger vessel. MMSI: 310627000.

Wind from 330 at 20 knots

Barometer 1010.1 mb
Air temperature 15.0 ° C
Visibility: greater than 10.8 NM
Dewpoint 8.0 ° C
Water temperature 13.4 ° C

Date/timePositionNaut miles runAvg speedWind from/ knotsBaromVisibWave heightAir tempDewpointWater temp
2017-May-27 04:00N 47°48' W 030°18'96120.6 330 / 201010.110.8 15.0 8.013.4
2017-May-25 05:20N 49°43' W 006°11'618.9
2017-May-25 04:59N 49°43' W 006°01'917.7
2017-May-25 04:30N 49°45' W 005°48'2219.1
2017-May-25 03:20N 49°50' W 005°15'720.9
2017-May-25 02:59N 49°51' W 005°04'1021.4
2017-May-25 02:30N 49°53' W 004°47'1121.7
2017-May-25 02:00N 49°55' W 004°31'1122.1
2017-May-25 01:30N 49°58' W 004°15'1122.8
2017-May-25 01:01N 49°59' W 003°57'1223.4
2017-May-25 00:31N 50°02' W 003°39'1224.0
2017-May-25 00:01N 50°06' W 003°22'1223.7
2017-May-24 23:31N 50°09' W 003°04'1121.6
2017-May-24 23:00N 50°12' W 002°48'1122.1
2017-May-24 22:30N 50°16' W 002°31'1222.0
2017-May-24 21:57N 50°18' W 002°12'1121.0
2017-May-24 21:24N 50°21' W 001°55'1020.3
2017-May-24 20:54N 50°23' W 001°39'819.7
2017-May-24 20:30N 50°25' W 001°27'816.3
2017-May-24 20:00N 50°28' W 001°16'511.1
2017-May-24 19:30N 50°31' W 001°08'612.3
2017-May-24 19:00N 50°34' W 000°60'612.1
2017-May-24 18:30N 50°39' W 000°56'611.8
2017-May-24 18:00N 50°44' W 001°02'918.7
2017-May-24 17:30N 50°46' W 001°17'5 9.2
2017-May-24 17:00N 50°51' W 001°20'4 7.2
2017-May-24 16:28N 50°53' W 001°24'0 0.1
2017-May-24 15:43N 50°53' W 001°24'0 0.0
2017-May-24 15:25N 50°53' W 001°24'0 0.0
2017-May-24 14:43N 50°53' W 001°24'0 0.0
2017-May-24 14:28N 50°53' W 001°24'0 0.0
2017-May-24 13:28N 50°53' W 001°24'0 0.0
2017-May-24 12:58N 50°53' W 001°24'0 0.0
2017-May-24 12:28N 50°53' W 001°24'0 0.0
2017-May-24 11:55N 50°53' W 001°24'0 0.0
2017-May-24 11:28N 50°53' W 001°24'0 0.0
2017-May-24 10:58N 50°53' W 001°24'0 0.0
2017-May-24 10:28N 50°53' W 001°24'0 0.0
2017-May-24 09:58N 50°53' W 001°24'0 0.0
2017-May-24 09:28N 50°53' W 001°24'0 0.0
2017-May-24 08:58N 50°53' W 001°24'0 0.0
2017-May-24 08:28N 50°53' W 001°24'0 0.0
2017-May-24 07:58N 50°53' W 001°24'0 0.0
2017-May-24 07:28N 50°53' W 001°24'0 0.0
2017-May-24 06:58N 50°53' W 001°24'0 0.0
2017-May-24 06:28N 50°53' W 001°24'0 0.0
2017-May-24 05:58N 50°53' W 001°24'0 0.1
2017-May-24 05:31N 50°53' W 001°24'1 1.1
2017-May-24 05:00N 50°53' W 001°24'4 7.4
2017-May-24 04:31N 50°50' W 001°19'4 8.1
2017-May-24 04:01N 50°47' W 001°17'815.1
2017-May-24 03:30N 50°45' W 001°06'714.0
2017-May-24 03:00N 50°41' W 000°56'4 7.5
2017-May-24 02:30N 50°38' W 000°53'714.8
2017-May-24 02:00N 50°36' W 000°42'815.2
2017-May-24 01:30N 50°34' W 000°30'816.3
2017-May-24 01:00N 50°33' W 000°18'917.8
2017-May-24 00:30N 50°31' W 000°04'816.7
2017-May-24 00:00N 50°32' E 000°09'816.7
2017-May-23 23:30N 50°34' E 000°22'917.5
2017-May-23 23:00N 50°36' E 000°36'917.1
2017-May-23 22:30N 50°40' E 000°47'816.5
2017-May-23 22:00N 50°45' E 000°57'1215.9
2017-May-23 21:17N 50°52' E 001°12'515.4
2017-May-23 20:57N 50°55' E 001°19'715.8
2017-May-23 20:30N 51°00' E 001°26'917.2
2017-May-23 20:00N 51°06' E 001°35'917.8
2017-May-23 19:30N 51°13' E 001°45'918.8
2017-May-23 19:00N 51°20' E 001°54'815.9
2017-May-23 18:30N 51°24' E 002°06'917.4
2017-May-23 18:00N 51°21' E 002°19'918.5
2017-May-23 17:30N 51°23' E 002°33'815.6
2017-May-23 17:00N 51°24' E 002°45'815.7
2017-May-23 16:30N 51°25' E 002°58'815.8
2017-May-23 16:01N 51°23' E 003°10'3 5.6
2017-May-23 15:30N 51°20' E 003°12'0 0.0
2017-May-23 15:00N 51°20' E 003°12'0 0.0
2017-May-23 14:00N 51°20' E 003°12'0 0.0
2017-May-23 13:30N 51°20' E 003°12'0 0.0
2017-May-23 13:00N 51°20' E 003°12'0 0.0
2017-May-23 12:30N 51°20' E 003°12'0 0.0
2017-May-23 11:57N 51°20' E 003°12'0 0.0
2017-May-23 11:30N 51°20' E 003°12'0 0.0
2017-May-23 11:00N 51°20' E 003°12'0 0.0
2017-May-23 10:30N 51°20' E 003°12'0 0.0
2017-May-23 10:00N 51°20' E 003°12'0 0.0
2017-May-23 09:30N 51°20' E 003°12'0 0.0
2017-May-23 09:00N 51°20' E 003°12'0 0.0
2017-May-23 08:30N 51°20' E 003°12'0 0.0
2017-May-23 08:00N 51°20' E 003°12'0 0.0
2017-May-23 07:30N 51°20' E 003°12'0 0.0
2017-May-23 06:57N 51°20' E 003°12'0 0.0
2017-May-23 06:30N 51°20' E 003°12'0 0.0
2017-May-23 06:00N 51°20' E 003°12'0 0.3
2017-May-23 05:30N 51°21' E 003°12'1 2.5
2017-May-23 05:00N 51°22' E 003°11'611.5
2017-May-23 04:31N 51°24' E 003°03'815.3
2017-May-23 04:01N 51°25' E 002°51'612.1
2017-May-23 03:30N 51°22' E 002°43'612.4
2017-May-23 03:00N 51°22' E 002°33'714.3
2017-May-23 02:31N 51°20' E 002°22'815.3
2017-May-23 02:00N 51°16' E 002°11'816.6
2017-May-23 01:31N 51°12' E 001°59'1019.2
2017-May-23 01:01N 51°07' E 001°46'1019.9
2017-May-23 00:31N 50°60' E 001°36'1020.1
2017-May-23 00:01N 50°51' E 001°28'1020.1
2017-May-22 23:31N 50°42' E 001°21'1019.6
2017-May-22 23:00N 50°35' E 001°10'1119.2
2017-May-22 22:26N 50°30' E 000°55'1219.0
2017-May-22 21:50N 50°27' E 000°37'618.9
2017-May-22 21:31N 50°25' E 000°28'1018.6
2017-May-22 20:58N 50°23' E 000°13'918.8
2017-May-22 20:31N 50°22' W 000°00'918.8
2017-May-22 20:01N 50°24' W 000°15'1019.2
2017-May-22 19:31N 50°28' W 000°28'1019.5
2017-May-22 19:01N 50°32' W 000°42'917.9
2017-May-22 18:31N 50°37' W 000°54'611.6
2017-May-22 18:00N 50°43' W 000°58'816.9
2017-May-22 17:31N 50°46' W 001°10'611.0
2017-May-22 17:00N 50°49' W 001°17'5 9.3
2017-May-22 16:31N 50°52' W 001°22'2 3.4
2017-May-22 16:00N 50°53' W 001°24'0 0.0
2017-May-22 15:21N 50°53' W 001°24'0 0.0
2017-May-22 15:00N 50°53' W 001°24'0 0.0
2017-May-22 13:57N 50°53' W 001°24'0 0.0
2017-May-22 13:30N 50°53' W 001°24'0 0.0
2017-May-22 13:00N 50°53' W 001°24'0 0.0
2017-May-22 12:30N 50°53' W 001°24'0 0.0
2017-May-22 12:00N 50°53' W 001°24'0 0.0
2017-May-22 11:30N 50°53' W 001°24'0 0.0
2017-May-22 11:00N 50°53' W 001°24'0 0.0
2017-May-22 10:30N 50°53' W 001°24'0 0.0
2017-May-22 10:00N 50°53' W 001°24'0 0.0
2017-May-22 09:30N 50°53' W 001°24'0 0.0
2017-May-22 09:00N 50°53' W 001°24'0 0.0
2017-May-22 08:24N 50°53' W 001°24'0 0.0
2017-May-22 07:57N 50°53' W 001°24'0 0.0
2017-May-22 07:30N 50°53' W 001°24'0 0.0
2017-May-22 07:00N 50°53' W 001°24'0 0.0
2017-May-22 06:30N 50°53' W 001°24'0 0.0
2017-May-22 06:00N 50°53' W 001°24'0 0.0
2017-May-22 05:31N 50°53' W 001°24'0 0.6
2017-May-22 05:00N 50°53' W 001°24'4 7.9
2017-May-22 04:30N 50°50' W 001°19'4 8.3
2017-May-22 04:00N 50°47' W 001°17'815.7
2017-May-22 03:30N 50°45' W 001°05'713.7
2017-May-22 03:00N 50°41' W 000°56'511.0
2017-May-22 02:30N 50°35' W 000°59'815.1
2017-May-22 02:00N 50°30' W 001°08'1121.8
2017-May-22 01:30N 50°27' W 001°24'1221.6
2017-May-22 00:57N 50°24' W 001°42'921.1
2017-May-22 00:31N 50°21' W 001°56'1020.8
2017-May-22 00:00N 50°17' W 002°11'1020.5
2017-May-21 23:31N 50°13' W 002°26'918.9
2017-May-21 23:00N 50°09' W 002°40'1019.4
2017-May-21 22:30N 50°08' W 002°54'1020.0
2017-May-21 22:00N 50°05' W 003°09'1020.0
2017-May-21 21:31N 50°01' W 003°24'1020.1
2017-May-21 21:01N 49°58' W 003°39'1020.3
2017-May-21 20:31N 49°56' W 003°54'1020.6
2017-May-21 20:00N 49°53' W 004°10'1020.8
2017-May-21 19:30N 49°51' W 004°25'1020.8
2017-May-21 19:00N 49°48' W 004°41'1020.2
2017-May-21 18:30N 49°46' W 004°56'918.9
2017-May-21 18:00N 49°43' W 005°10'1020.8
2017-May-21 17:30N 49°41' W 005°26'3420.0
2017-May-21 15:48N 49°38' W 006°18'44121.2
2017-May-20 19:00N 49°18' W 017°36'8320.8 180 / 341012.210.8 13.011.911.5
2017-May-20 15:00N 49°06' W 019°42'15221.7 180 / 311012.610.8 13.511.611.5
2017-May-20 08:00N 48°42' W 023°30'58021.5 180 / 251013.7 5.4 14.012.512.7
2017-May-19 05:00N 46°00' W 037°12'25421.2 210 / 241010.510.8 14.510.714.7
2017-May-18 17:00N 44°18' W 042°42'15024.9 280 / 241011.110.8 17.0 7.016.1
2017-May-18 11:00N 43°12' W 045°48'42421.2 280 / 281012.527.0 14.8 8.316.5
2017-May-17 15:00N 41°48' W 055°12'11723.4 280 / 241011.310.8 17.510.014.6
2017-May-17 10:00N 41°36' W 057°48'7719.3 260 / 231010.810.8 18.012.718.0
2017-May-17 06:00N 41°24' W 059°30'   340 / 201009.010.8 16.010.316.3
Track history (hours):
 
Tides and Currents Weather Stations Pressure Air Temp Water Temp Dewpoint Dewpoint Depression Visibility Wind Speed Wind Dir Waves Ship Positions

Rms Queen Mary 2

Last reported at 2017-May-27 04:00 UTC. Time now 2017-May-29 16:51 UTC.
Position N 47°48' W 030°18'.

Length 345 m; draft 10.3 m.

Type: Passenger vessel. MMSI: 310627000.

Wind from 330 at 20 knots

Barometer 1010.1 mb
Air temperature 15.0 ° C
Visibility: greater than 10.8 NM
Dewpoint 8.0 ° C
Water temperature 13.4 ° C

Date/timePositionNaut miles runAvg speedWind from/ knotsBaromVisibWave heightAir tempDewpointWater temp
2017-May-27 04:00N 47°48' W 030°18'96120.6 330 / 201010.110.8 15.0 8.013.4
2017-May-25 05:20N 49°43' W 006°11'618.9
2017-May-25 04:59N 49°43' W 006°01'917.7
2017-May-25 04:30N 49°45' W 005°48'2219.1
2017-May-25 03:20N 49°50' W 005°15'720.9
2017-May-25 02:59N 49°51' W 005°04'1021.4
2017-May-25 02:30N 49°53' W 004°47'1121.7
2017-May-25 02:00N 49°55' W 004°31'1122.1
2017-May-25 01:30N 49°58' W 004°15'1122.8
2017-May-25 01:01N 49°59' W 003°57'1223.4
2017-May-25 00:31N 50°02' W 003°39'1224.0
2017-May-25 00:01N 50°06' W 003°22'1223.7
2017-May-24 23:31N 50°09' W 003°04'1121.6
2017-May-24 23:00N 50°12' W 002°48'1122.1
2017-May-24 22:30N 50°16' W 002°31'1222.0
2017-May-24 21:57N 50°18' W 002°12'1121.0
2017-May-24 21:24N 50°21' W 001°55'1020.3
2017-May-24 20:54N 50°23' W 001°39'819.7
2017-May-24 20:30N 50°25' W 001°27'816.3
2017-May-24 20:00N 50°28' W 001°16'511.1
2017-May-24 19:30N 50°31' W 001°08'612.3
2017-May-24 19:00N 50°34' W 000°60'612.1
2017-May-24 18:30N 50°39' W 000°56'611.8
2017-May-24 18:00N 50°44' W 001°02'918.7
2017-May-24 17:30N 50°46' W 001°17'5 9.2
2017-May-24 17:00N 50°51' W 001°20'4 7.2
2017-May-24 16:28N 50°53' W 001°24'0 0.1
2017-May-24 15:43N 50°53' W 001°24'0 0.0
2017-May-24 15:25N 50°53' W 001°24'0 0.0
2017-May-24 14:43N 50°53' W 001°24'0 0.0
2017-May-24 14:28N 50°53' W 001°24'0 0.0
2017-May-24 13:28N 50°53' W 001°24'0 0.0
2017-May-24 12:58N 50°53' W 001°24'0 0.0
2017-May-24 12:28N 50°53' W 001°24'0 0.0
2017-May-24 11:55N 50°53' W 001°24'0 0.0
2017-May-24 11:28N 50°53' W 001°24'0 0.0
2017-May-24 10:58N 50°53' W 001°24'0 0.0
2017-May-24 10:28N 50°53' W 001°24'0 0.0
2017-May-24 09:58N 50°53' W 001°24'0 0.0
2017-May-24 09:28N 50°53' W 001°24'0 0.0
2017-May-24 08:58N 50°53' W 001°24'0 0.0
2017-May-24 08:28N 50°53' W 001°24'0 0.0
2017-May-24 07:58N 50°53' W 001°24'0 0.0
2017-May-24 07:28N 50°53' W 001°24'0 0.0
2017-May-24 06:58N 50°53' W 001°24'0 0.0
2017-May-24 06:28N 50°53' W 001°24'0 0.0
2017-May-24 05:58N 50°53' W 001°24'0 0.1
2017-May-24 05:31N 50°53' W 001°24'1 1.1
2017-May-24 05:00N 50°53' W 001°24'4 7.4
2017-May-24 04:31N 50°50' W 001°19'4 8.1
2017-May-24 04:01N 50°47' W 001°17'815.1
2017-May-24 03:30N 50°45' W 001°06'714.0
2017-May-24 03:00N 50°41' W 000°56'4 7.5
2017-May-24 02:30N 50°38' W 000°53'714.8
2017-May-24 02:00N 50°36' W 000°42'815.2
2017-May-24 01:30N 50°34' W 000°30'816.3
2017-May-24 01:00N 50°33' W 000°18'917.8
2017-May-24 00:30N 50°31' W 000°04'816.7
2017-May-24 00:00N 50°32' E 000°09'816.7
2017-May-23 23:30N 50°34' E 000°22'917.5
2017-May-23 23:00N 50°36' E 000°36'917.1
2017-May-23 22:30N 50°40' E 000°47'816.5
2017-May-23 22:00N 50°45' E 000°57'1215.9
2017-May-23 21:17N 50°52' E 001°12'515.4
2017-May-23 20:57N 50°55' E 001°19'715.8
2017-May-23 20:30N 51°00' E 001°26'917.2
2017-May-23 20:00N 51°06' E 001°35'917.8
2017-May-23 19:30N 51°13' E 001°45'918.8
2017-May-23 19:00N 51°20' E 001°54'815.9
2017-May-23 18:30N 51°24' E 002°06'917.4
2017-May-23 18:00N 51°21' E 002°19'918.5
2017-May-23 17:30N 51°23' E 002°33'815.6
2017-May-23 17:00N 51°24' E 002°45'815.7
2017-May-23 16:30N 51°25' E 002°58'815.8
2017-May-23 16:01N 51°23' E 003°10'3 5.6
2017-May-23 15:30N 51°20' E 003°12'0 0.0
2017-May-23 15:00N 51°20' E 003°12'0 0.0
2017-May-23 14:00N 51°20' E 003°12'0 0.0
2017-May-23 13:30N 51°20' E 003°12'0 0.0
2017-May-23 13:00N 51°20' E 003°12'0 0.0
2017-May-23 12:30N 51°20' E 003°12'0 0.0
2017-May-23 11:57N 51°20' E 003°12'0 0.0
2017-May-23 11:30N 51°20' E 003°12'0 0.0
2017-May-23 11:00N 51°20' E 003°12'0 0.0
2017-May-23 10:30N 51°20' E 003°12'0 0.0
2017-May-23 10:00N 51°20' E 003°12'0 0.0
2017-May-23 09:30N 51°20' E 003°12'0 0.0
2017-May-23 09:00N 51°20' E 003°12'0 0.0
2017-May-23 08:30N 51°20' E 003°12'0 0.0
2017-May-23 08:00N 51°20' E 003°12'0 0.0
2017-May-23 07:30N 51°20' E 003°12'0 0.0
2017-May-23 06:57N 51°20' E 003°12'0 0.0
2017-May-23 06:30N 51°20' E 003°12'0 0.0
2017-May-23 06:00N 51°20' E 003°12'0 0.3
2017-May-23 05:30N 51°21' E 003°12'1 2.5
2017-May-23 05:00N 51°22' E 003°11'611.5
2017-May-23 04:31N 51°24' E 003°03'815.3
2017-May-23 04:01N 51°25' E 002°51'612.1
2017-May-23 03:30N 51°22' E 002°43'612.4
2017-May-23 03:00N 51°22' E 002°33'714.3
2017-May-23 02:31N 51°20' E 002°22'815.3
2017-May-23 02:00N 51°16' E 002°11'816.6
2017-May-23 01:31N 51°12' E 001°59'1019.2
2017-May-23 01:01N 51°07' E 001°46'1019.9
2017-May-23 00:31N 50°60' E 001°36'1020.1
2017-May-23 00:01N 50°51' E 001°28'1020.1
2017-May-22 23:31N 50°42' E 001°21'1019.6
2017-May-22 23:00N 50°35' E 001°10'1119.2
2017-May-22 22:26N 50°30' E 000°55'1219.0
2017-May-22 21:50N 50°27' E 000°37'618.9
2017-May-22 21:31N 50°25' E 000°28'1018.6
2017-May-22 20:58N 50°23' E 000°13'918.8
2017-May-22 20:31N 50°22' W 000°00'918.8
2017-May-22 20:01N 50°24' W 000°15'1019.2
2017-May-22 19:31N 50°28' W 000°28'1019.5
2017-May-22 19:01N 50°32' W 000°42'917.9
2017-May-22 18:31N 50°37' W 000°54'611.6
2017-May-22 18:00N 50°43' W 000°58'816.9
2017-May-22 17:31N 50°46' W 001°10'611.0
2017-May-22 17:00N 50°49' W 001°17'5 9.3
2017-May-22 16:31N 50°52' W 001°22'2 3.4
2017-May-22 16:00N 50°53' W 001°24'0 0.0
2017-May-22 15:21N 50°53' W 001°24'0 0.0
2017-May-22 15:00N 50°53' W 001°24'0 0.0
2017-May-22 13:57N 50°53' W 001°24'0 0.0
2017-May-22 13:30N 50°53' W 001°24'0 0.0
2017-May-22 13:00N 50°53' W 001°24'0 0.0
2017-May-22 12:30N 50°53' W 001°24'0 0.0
2017-May-22 12:00N 50°53' W 001°24'0 0.0
2017-May-22 11:30N 50°53' W 001°24'0 0.0
2017-May-22 11:00N 50°53' W 001°24'0 0.0
2017-May-22 10:30N 50°53' W 001°24'0 0.0
2017-May-22 10:00N 50°53' W 001°24'0 0.0
2017-May-22 09:30N 50°53' W 001°24'0 0.0
2017-May-22 09:00N 50°53' W 001°24'0 0.0
2017-May-22 08:24N 50°53' W 001°24'0 0.0
2017-May-22 07:57N 50°53' W 001°24'0 0.0
2017-May-22 07:30N 50°53' W 001°24'0 0.0
2017-May-22 07:00N 50°53' W 001°24'0 0.0
2017-May-22 06:30N 50°53' W 001°24'0 0.0
2017-May-22 06:00N 50°53' W 001°24'0 0.0
2017-May-22 05:31N 50°53' W 001°24'0 0.6
2017-May-22 05:00N 50°53' W 001°24'4 7.9
2017-May-22 04:30N 50°50' W 001°19'4 8.3
2017-May-22 04:00N 50°47' W 001°17'815.7
2017-May-22 03:30N 50°45' W 001°05'713.7
2017-May-22 03:00N 50°41' W 000°56'511.0
2017-May-22 02:30N 50°35' W 000°59'815.1
2017-May-22 02:00N 50°30' W 001°08'1121.8
2017-May-22 01:30N 50°27' W 001°24'1221.6
2017-May-22 00:57N 50°24' W 001°42'921.1
2017-May-22 00:31N 50°21' W 001°56'1020.8
2017-May-22 00:00N 50°17' W 002°11'1020.5
2017-May-21 23:31N 50°13' W 002°26'918.9
2017-May-21 23:00N 50°09' W 002°40'1019.4
2017-May-21 22:30N 50°08' W 002°54'1020.0
2017-May-21 22:00N 50°05' W 003°09'1020.0
2017-May-21 21:31N 50°01' W 003°24'1020.1
2017-May-21 21:01N 49°58' W 003°39'1020.3
2017-May-21 20:31N 49°56' W 003°54'1020.6
2017-May-21 20:00N 49°53' W 004°10'1020.8
2017-May-21 19:30N 49°51' W 004°25'1020.8
2017-May-21 19:00N 49°48' W 004°41'1020.2
2017-May-21 18:30N 49°46' W 004°56'918.9
2017-May-21 18:00N 49°43' W 005°10'1020.8
2017-May-21 17:30N 49°41' W 005°26'3420.0
2017-May-21 15:48N 49°38' W 006°18'44121.2
2017-May-20 19:00N 49°18' W 017°36'8320.8 180 / 341012.210.8 13.011.911.5
2017-May-20 15:00N 49°06' W 019°42'15221.7 180 / 311012.610.8 13.511.611.5
2017-May-20 08:00N 48°42' W 023°30'58021.5 180 / 251013.7 5.4 14.012.512.7
2017-May-19 05:00N 46°00' W 037°12'25421.2 210 / 241010.510.8 14.510.714.7
2017-May-18 17:00N 44°18' W 042°42'15024.9 280 / 241011.110.8 17.0 7.016.1
2017-May-18 11:00N 43°12' W 045°48'42421.2 280 / 281012.527.0 14.8 8.316.5
2017-May-17 15:00N 41°48' W 055°12'11723.4 280 / 241011.310.8 17.510.014.6
2017-May-17 10:00N 41°36' W 057°48'7719.3 260 / 231010.810.8 18.012.718.0
2017-May-17 06:00N 41°24' W 059°30'   340 / 201009.010.8 16.010.316.3

Dump ship's entire track history